Time;durP1;ratioP1;P1;durP2;ratioP2;P2;SDS_P1;SDS_P2;PMS_P1;PMS_P2;Temp;Humidity;BMP_temperature;BMP_pressure;BME280_temperature;BME280_humidity;BME280_pressure;Samples;Min_cycle;Max_cycle;Signal;HPM_P1;HPM_P2
2021/01/28 00:00:30;;;;;;;13.00;8.80;;;;;;;0.47;62.48;95779.93;1690701;84;21235;-55
2021/01/28 00:02:58;;;;;;;12.55;8.68;;;;;;;0.51;62.38;95782.71;1689301;84;21155;-53
2021/01/28 00:05:28;;;;;;;14.25;8.75;;;;;;;0.54;62.29;95783.44;1690845;84;21210;-54
2021/01/28 00:07:57;;;;;;;9.88;7.65;;;;;;;0.55;62.37;95779.97;1688889;83;21262;-55
2021/01/28 00:10:25;;;;;;;12.10;8.95;;;;;;;0.55;62.27;95789.36;1684300;83;21658;-55
2021/01/28 00:12:54;;;;;;;12.07;8.75;;;;;;;0.49;62.48;95790.47;1691008;84;21514;-52
2021/01/28 00:15:24;;;;;;;11.40;8.50;;;;;;;0.50;62.70;95795.11;1690990;84;21075;-52
2021/01/28 00:17:52;;;;;;;11.90;8.83;;;;;;;0.52;62.62;95800.52;1690174;84;21616;-55
2021/01/28 00:20:25;;;;;;;10.98;8.20;;;;;;;0.54;62.51;95801.30;1675451;83;22023;-55
2021/01/28 00:22:52;;;;;;;12.58;9.15;;;;;;;0.54;62.49;95797.90;1665459;84;21082;-53
2021/01/28 00:25:21;;;;;;;12.82;9.15;;;;;;;0.52;62.57;95799.23;1682716;83;21534;-55
2021/01/28 00:27:49;;;;;;;12.37;8.20;;;;;;;0.53;62.60;95800.09;1690536;84;21653;-53
2021/01/28 00:30:21;;;;;;;;;;;;;;;0.49;62.70;95794.30;1693325;84;22303;-55
2021/01/28 00:32:49;;;;;;;13.85;8.70;;;;;;;0.48;62.85;95792.63;1692570;83;20252;-55
2021/01/28 00:35:34;;;;;;;13.20;8.50;;;;;;;0.46;62.96;95798.67;1691290;84;21669;-54
2021/01/28 00:38:04;;;;;;;12.40;9.15;;;;;;;0.47;63.06;95796.06;1673776;83;21088;-54
2021/01/28 00:40:32;;;;;;;;;;;;;;;0.45;63.20;95788.11;1693089;83;21479;-53
2021/01/28 00:42:59;;;;;;;14.80;9.70;;;;;;;0.45;63.31;95791.48;1690450;84;21207;-53
2021/01/28 00:45:29;;;;;;;12.50;8.70;;;;;;;0.44;63.27;95785.98;1691217;84;21137;-53
2021/01/28 00:47:58;;;;;;;13.75;9.45;;;;;;;0.39;63.40;95785.36;1653529;85;21588;-54
2021/01/28 00:50:28;;;;;;;11.97;9.48;;;;;;;0.36;63.46;95786.33;1690813;83;21184;-55
2021/01/28 00:52:56;;;;;;;15.38;9.30;;;;;;;0.35;63.59;95782.11;1691120;83;21174;-54
2021/01/28 00:55:24;;;;;;;12.40;9.60;;;;;;;0.38;63.60;95776.48;1692236;83;21213;-53
2021/01/28 00:57:53;;;;;;;14.40;9.83;;;;;;;0.35;63.57;95774.45;1690545;84;21093;-55
2021/01/28 01:00:29;;;;;;;12.95;9.73;;;;;;;0.29;63.62;95774.71;1691542;84;21100;-54
2021/01/28 01:02:57;;;;;;;16.23;10.55;;;;;;;0.28;63.89;95767.12;1690595;83;21156;-54
2021/01/28 01:05:28;;;;;;;14.35;9.98;;;;;;;0.29;63.81;95769.61;1690034;83;21105;-53
2021/01/28 01:07:56;;;;;;;14.50;9.95;;;;;;;0.25;63.75;95769.38;1684646;83;21325;-53
2021/01/28 01:10:37;;;;;;;12.25;8.78;;;;;;;0.17;63.96;95763.31;1690609;83;21138;-55
2021/01/28 01:13:07;;;;;;;13.40;9.85;;;;;;;0.17;64.15;95763.77;1680028;84;21145;-53
2021/01/28 01:15:36;;;;;;;14.38;9.75;;;;;;;0.15;64.12;95758.73;1689532;84;21628;-53
2021/01/28 01:18:08;;;;;;;13.60;10.13;;;;;;;0.18;64.15;95763.70;1692434;83;21083;-55
2021/01/28 01:20:38;;;;;;;16.17;9.73;;;;;;;0.22;64.09;95752.92;1690515;83;21388;-54
2021/01/28 01:23:06;;;;;;;13.35;9.40;;;;;;;0.23;64.01;95753.31;1665029;83;21193;-54
2021/01/28 01:25:36;;;;;;;14.23;10.25;;;;;;;0.24;63.88;95751.12;1675010;83;21132;-55
2021/01/28 01:28:04;;;;;;;15.05;10.43;;;;;;;0.26;63.81;95753.61;1651839;86;22009;-54
2021/01/28 01:30:48;;;;;;;15.40;10.00;;;;;;;0.34;63.72;95745.17;1813570;79;22232;-53
2021/01/28 01:33:16;;;;;;;14.60;9.58;;;;;;;0.28;63.62;95750.53;1757919;81;21075;-53
2021/01/28 01:36:01;;;;;;;15.48;9.78;;;;;;;0.24;63.75;95747.75;1756323;80;21238;-53
2021/01/28 01:38:30;;;;;;;15.95;10.38;;;;;;;0.25;63.79;95748.14;1756833;80;21200;-54
2021/01/28 01:40:59;;;;;;;15.55;9.75;;;;;;;0.21;63.85;95735.94;1735828;81;21089;-53
2021/01/28 01:43:27;;;;;;;13.28;10.18;;;;;;;0.21;64.11;95739.77;1722403;82;21498;-53
2021/01/28 01:46:08;;;;;;;15.55;10.13;;;;;;;0.21;64.11;95739.77;1738943;81;21521;-54
2021/01/28 01:48:51;;;;;;;14.38;9.88;;;;;;;0.25;63.95;95742.58;1696415;83;21224;-53
2021/01/28 01:51:31;;;;;;;17.57;10.15;;;;;;;0.30;63.71;95737.28;1685355;83;21134;-54
2021/01/28 01:54:25;;;;;;;13.90;9.38;;;;;;;0.29;63.70;95735.62;1670858;85;21185;-54
2021/01/28 01:56:59;;;;;;;15.55;9.70;;;;;;;0.28;63.66;95737.35;1684849;83;21547;-56
2021/01/28 01:59:36;;;;;;;12.78;9.48;;;;;;;0.21;63.79;95735.94;1655213;84;21154;-53
2021/01/28 02:02:25;;;;;;;12.47;9.20;;;;;;;0.27;63.90;95734.86;1879707;76;22512;-53
2021/01/28 02:05:28;;;;;;;14.47;9.50;;;;;;;0.25;63.71;95733.66;1818409;77;21548;-54
2021/01/28 02:08:14;;;;;;;12.25;9.50;;;;;;;0.25;63.71;95733.66;1825219;77;21915;-54
2021/01/28 02:10:42;;;;;;;12.98;9.73;;;;;;;0.25;63.77;95736.20;1842167;77;20946;-54
2021/01/28 02:13:11;;;;;;;14.10;9.65;;;;;;;0.28;63.71;95733.95;1767400;80;21093;-54
2021/01/28 02:15:41;;;;;;;13.85;8.95;;;;;;;0.33;63.68;95732.87;1770545;78;21571;-54
2021/01/28 02:18:09;;;;;;;14.13;9.53;;;;;;;0.37;63.54;95731.01;1822047;77;21575;-54
2021/01/28 02:21:11;;;;;;;16.05;10.13;;;;;;;0.40;63.44;95727.05;1838248;77;22497;-53
2021/01/28 02:24:04;;;;;;;14.00;8.80;;;;;;;0.41;63.28;95726.59;1819981;77;21132;-54
2021/01/28 02:26:33;;;;;;;12.30;8.35;;;;;;;0.41;63.33;95721.48;1826238;77;21172;-54
2021/01/28 02:29:13;;;;;;;14.15;8.73;;;;;;;0.40;63.27;95719.84;1806625;77;21055;-55
2021/01/28 02:31:42;;;;;;;14.50;9.38;;;;;;;0.40;63.18;95718.11;1800381;77;21089;-54
2021/01/28 02:34:11;;;;;;;16.62;9.35;;;;;;;0.41;63.23;95715.95;1836531;77;21140;-54
2021/01/28 02:36:48;;;;;;;13.58;8.98;;;;;;;0.48;63.15;95717.33;1802723;77;21080;-56
2021/01/28 02:39:22;;;;;;;12.18;8.55;;;;;;;0.48;63.15;95717.33;1825728;77;21049;-54
2021/01/28 02:42:02;;;;;;;12.00;8.33;;;;;;;0.53;62.97;95710.29;1809461;77;21556;-54
2021/01/28 02:44:30;;;;;;;11.78;8.63;;;;;;;0.53;62.97;95710.29;1787968;79;21917;-54
2021/01/28 02:47:08;;;;;;;13.20;8.27;;;;;;;0.50;62.93;95704.50;1813498;77;21531;-53
2021/01/28 02:49:49;;;;;;;14.18;8.93;;;;;;;0.45;62.87;95707.71;1829460;77;21550;-52
2021/01/28 02:52:18;;;;;;;14.98;9.60;;;;;;;0.42;62.92;95698.45;1838591;77;21207;-54
2021/01/28 02:54:51;;;;;;;15.03;9.03;;;;;;;0.39;62.99;95696.48;1798826;79;21188;-53
2021/01/28 02:57:19;;;;;;;14.03;9.38;;;;;;;0.38;63.13;95702.48;1820404;77;21088;-53
2021/01/28 02:59:49;;;;;;;14.35;9.33;;;;;;;0.38;63.12;95696.09;1813319;77;21372;-52
2021/01/28 03:02:18;;;;;;;15.90;9.13;;;;;;;0.36;63.17;95698.72;1816772;77;21620;-53
2021/01/28 03:04:48;;;;;;;14.63;9.93;;;;;;;0.35;63.10;95699.63;1840072;77;21473;-53
2021/01/28 03:07:26;;;;;;;15.50;10.77;;;;;;;0.32;63.15;95695.94;1852307;76;22212;-53
2021/01/28 03:09:55;;;;;;;18.27;11.73;;;;;;;0.24;63.24;95696.27;1803147;78;21479;-55
2021/01/28 03:12:27;;;;;;;20.90;14.20;;;;;;;0.23;63.29;95689.95;1822752;78;22182;-53
2021/01/28 03:15:07;;;;;;;13.68;9.85;;;;;;;0.22;63.35;95692.14;1817905;78;21087;-53
2021/01/28 03:17:37;;;;;;;12.30;8.30;;;;;;;0.22;63.31;95694.69;1797767;78;21125;-54
2021/01/28 03:20:09;;;;;;;14.65;9.33;;;;;;;0.17;63.31;95686.78;1835065;78;21134;-52
2021/01/28 03:22:39;;;;;;;12.00;8.33;;;;;;;0.17;63.42;95686.78;1827592;78;21039;-53
2021/01/28 03:25:12;;;;;;;10.53;7.58;;;;;;;0.17;63.32;95679.58;1823647;78;21209;-53
2021/01/28 03:27:40;;;;;;;12.05;7.53;;;;;;;0.11;63.39;95677.29;1837586;77;26889;-56
2021/01/28 03:30:12;;;;;;;12.30;7.30;;;;;;;0.07;63.39;95670.23;1841610;77;21595;-54
2021/01/28 03:32:40;;;;;;;9.73;6.78;;;;;;;0.05;63.50;95673.30;1841548;78;21350;-54
2021/01/28 03:35:09;;;;;;;9.20;6.58;;;;;;;0.01;63.58;95671.77;1837960;77;21135;-55
2021/01/28 03:37:38;;;;;;;12.60;7.55;;;;;;;-0.02;63.51;95675.72;1800555;78;21149;-56
2021/01/28 03:40:08;;;;;;;;;;;;;;;-0.05;63.60;95678.39;1816114;78;21135;-54
2021/01/28 03:42:36;;;;;;;;;;;;;;;-0.05;63.60;95677.97;1828697;77;20220;-55
2021/01/28 03:45:06;;;;;;;16.37;7.90;;;;;;;-0.04;63.57;95678.33;1840204;78;20234;-55
2021/01/28 03:47:34;;;;;;;16.00;8.33;;;;;;;-0.03;63.52;95671.07;1833922;78;21040;-55
2021/01/28 03:50:20;;;;;;;10.10;7.03;;;;;;;0.04;63.46;95670.36;1860280;75;21888;-54
2021/01/28 03:52:49;;;;;;;10.13;7.12;;;;;;;0.03;63.21;95683.17;1836409;76;21566;-54
2021/01/28 03:55:28;;;;;;;;;;;;;;;0.00;63.14;95672.67;1822280;76;21204;-55
2021/01/28 03:57:55;;;;;;;13.55;8.08;;;;;;;0.03;63.21;95683.17;1831451;77;20501;-56
2021/01/28 04:00:30;;;;;;;14.40;7.53;;;;;;;0.04;63.21;95677.19;1827483;77;21190;-54
2021/01/28 04:03:00;;;;;;;11.90;7.55;;;;;;;0.01;63.30;95685.79;1875490;76;21116;-53
2021/01/28 04:05:33;;;;;;;12.63;7.42;;;;;;;-0.01;63.28;95679.48;1820838;76;21038;-53
2021/01/28 04:08:05;;;;;;;12.43;7.72;;;;;;;-0.04;63.37;95677.05;1815356;77;22128;-54
2021/01/28 04:10:37;;;;;;;14.10;7.78;;;;;;;-0.05;63.43;95679.24;1835989;76;21058;-54
2021/01/28 04:13:06;;;;;;;13.30;7.83;;;;;;;-0.03;63.39;95675.36;1816236;77;20940;-54
2021/01/28 04:15:35;;;;;;;13.10;7.80;;;;;;;0.00;63.42;95680.33;1814630;77;21091;-53
2021/01/28 04:18:05;;;;;;;11.55;7.35;;;;;;;0.02;63.26;95682.78;1796167;77;21071;-53
2021/01/28 04:20:41;;;;;;;10.50;7.15;;;;;;;-0.01;63.25;95681.20;1804306;76;21145;-53
2021/01/28 04:23:11;;;;;;;12.88;7.90;;;;;;;-0.02;63.37;95678.27;1814771;76;21233;-53
2021/01/28 04:25:56;;;;;;;14.93;8.05;;;;;;;-0.03;63.27;95665.97;1818449;76;21054;-54
2021/01/28 04:28:25;;;;;;;14.75;7.90;;;;;;;-0.06;63.27;95673.75;1837231;77;21082;-53
2021/01/28 04:31:03;;;;;;;12.82;7.03;;;;;;;-0.08;63.13;95669.63;1788056;80;21196;-53
2021/01/28 04:33:32;;;;;;;13.25;8.35;;;;;;;-0.15;63.25;95675.41;1858219;76;21371;-53
2021/01/28 04:36:02;;;;;;;14.98;8.35;;;;;;;-0.24;63.40;95675.36;1873339;76;21113;-56
2021/01/28 04:38:30;;;;;;;;;;;;;;;-0.28;63.59;95673.85;1843664;76;21515;-57
2021/01/28 04:41:06;;;;;;;;;;;;;;;-0.29;63.74;95678.55;1831874;76;20227;-54
2021/01/28 04:43:34;;;;;;;12.55;8.00;;;;;;;-0.29;63.92;95681.11;1824491;76;20496;-53
2021/01/28 04:46:32;;;;;;;14.20;8.30;;;;;;;-0.23;63.92;95687.23;1895780;75;22314;-53
2021/01/28 04:49:19;;;;;;;15.32;8.35;;;;;;;-0.25;63.82;95680.52;1723829;82;21527;-53
2021/01/28 04:52:04;;;;;;;15.53;8.80;;;;;;;-0.17;63.80;95684.03;1861002;76;22842;-53
2021/01/28 04:54:35;;;;;;;16.10;8.13;;;;;;;-0.20;63.70;95686.25;1778284;79;21081;-53
2021/01/28 04:57:09;;;;;;;16.60;7.78;;;;;;;-0.18;63.67;95694.69;1830661;77;21184;-54
2021/01/28 04:59:42;;;;;;;12.88;8.20;;;;;;;-0.15;63.58;95694.53;1810704;78;21083;-54
2021/01/28 05:02:21;;;;;;;13.10;8.20;;;;;;;-0.09;63.40;95691.73;1815726;78;21079;-53
2021/01/28 05:04:56;;;;;;;14.38;8.38;;;;;;;-0.06;63.35;95688.23;1814988;78;21114;-54
2021/01/28 05:07:42;;;;;;;15.57;8.87;;;;;;;-0.02;63.20;95696.12;1763580;79;22299;-53
2021/01/28 05:10:43;;;;;;;13.65;7.90;;;;;;;-0.07;63.23;95695.48;1728828;82;21081;-55
2021/01/28 05:13:35;;;;;;;15.03;7.87;;;;;;;-0.08;63.16;95700.23;1741622;82;21390;-55
2021/01/28 05:16:40;;;;;;;12.13;7.80;;;;;;;-0.09;63.17;95707.03;1726912;82;21187;-54
2021/01/28 05:19:37;;;;;;;14.03;7.08;;;;;;;-0.14;63.15;95704.30;1670296;84;21102;-54
2021/01/28 05:22:27;;;;;;;13.03;7.62;;;;;;;-0.14;63.22;95715.78;1673346;83;21484;-53
2021/01/28 05:28:32;;;;;;;14.30;8.50;;;;;;;-0.02;63.05;95713.55;1868948;76;22254;-54
2021/01/28 05:31:32;;;;;;;11.38;6.60;;;;;;;-0.01;62.98;95716.91;1817704;78;21098;-53
2021/01/28 05:34:26;;;;;;;11.45;6.97;;;;;;;0.03;62.83;95720.16;1813226;78;21612;-54
2021/01/28 05:37:06;;;;;;;12.43;8.40;;;;;;;0.04;62.67;95721.37;1830265;78;21055;-54
2021/01/28 05:39:41;;;;;;;11.10;7.37;;;;;;;-0.02;62.76;95722.47;1815033;78;21083;-54
2021/01/28 05:42:27;;;;;;;16.15;7.12;;;;;;;0.00;62.73;95723.69;1821445;77;21106;-57
2021/01/28 05:44:56;;;;;;;11.00;7.15;;;;;;;-0.02;62.67;95722.47;1809076;78;21083;-54
2021/01/28 05:47:34;;;;;;;11.03;7.60;;;;;;;-0.03;62.78;95728.91;1830971;78;21283;-53
2021/01/28 05:50:31;;;;;;;12.53;8.08;;;;;;;0.01;62.74;95730.88;1780702;79;20995;-53
2021/01/28 05:53:15;;;;;;;11.22;7.45;;;;;;;0.04;62.56;95726.47;1798647;79;21177;-54
2021/01/28 05:55:46;;;;;;;14.78;9.63;;;;;;;0.03;62.53;95732.45;1798294;79;21067;-55
2021/01/28 05:58:42;;;;;;;13.08;8.78;;;;;;;0.05;62.51;95729.41;1787447;79;21074;-54
2021/01/28 06:01:40;;;;;;;16.05;7.78;;;;;;;0.07;62.53;95730.63;1798456;79;21558;-54
2021/01/28 06:04:32;;;;;;;14.98;8.23;;;;;;;0.07;62.43;95732.72;1710694;80;21639;-55
2021/01/28 06:07:16;;;;;;;13.30;7.97;;;;;;;0.07;62.42;95734.45;1804315;78;21538;-57
2021/01/28 06:10:12;;;;;;;11.70;8.07;;;;;;;0.17;62.44;95736.52;1886113;74;22253;-56
2021/01/28 06:12:57;;;;;;;13.95;8.05;;;;;;;0.18;62.33;95742.02;1709049;80;21457;-54
2021/01/28 06:15:40;;;;;;;16.12;9.85;;;;;;;0.21;62.13;95735.94;1782686;80;21382;-55
2021/01/28 06:19:01;;;;;;;14.57;9.53;;;;;;;0.19;62.28;95732.63;1848023;76;22246;-55
2021/01/28 06:22:03;;;;;;;13.60;8.90;;;;;;;0.22;62.18;95727.41;1856389;75;22756;-55
2021/01/28 06:24:50;;;;;;;16.85;8.65;;;;;;;0.20;62.07;95729.62;1824702;78;21130;-55
2021/01/28 06:27:57;;;;;;;157.62;79.92;;;;;;;0.22;61.98;95722.30;1825098;78;21201;-55
2021/01/28 06:30:37;;;;;;;22.07;12.88;;;;;;;0.25;62.25;95722.17;1792654;78;21148;-55
2021/01/28 06:33:27;;;;;;;14.13;8.75;;;;;;;0.36;61.51;95718.70;1816583;78;21146;-56
2021/01/28 06:36:44;;;;;;;19.00;9.05;;;;;;;0.34;61.21;95725.58;1811935;78;21063;-55
2021/01/28 06:39:28;;;;;;;13.72;8.88;;;;;;;0.25;61.21;95728.55;1790117;78;21124;-55
2021/01/28 06:42:41;;;;;;;15.00;9.28;;;;;;;0.19;61.49;95731.36;1826515;78;21373;-55
2021/01/28 06:45:18;;;;;;;17.15;9.50;;;;;;;0.16;61.43;95737.86;1807259;79;21468;-54
2021/01/28 06:48:14;;;;;;;15.75;8.73;;;;;;;0.18;61.53;95743.30;1807597;78;21078;-55
2021/01/28 06:50:51;;;;;;;13.22;7.47;;;;;;;0.20;61.42;95739.83;1758362;79;21056;-55
2021/01/28 06:53:33;;;;;;;15.65;7.80;;;;;;;0.25;61.16;95735.39;1802601;79;21118;-55
2021/01/28 06:56:53;;;;;;;13.68;7.58;;;;;;;0.24;61.03;95740.09;1783709;78;21750;-55
2021/01/28 06:59:47;;;;;;;15.88;8.20;;;;;;;0.26;60.80;95735.29;1802869;78;21174;-56
2021/01/28 07:02:45;;;;;;;14.60;8.60;;;;;;;0.20;60.65;95739.83;1761130;79;21595;-55
2021/01/28 07:05:41;;;;;;;17.37;10.03;;;;;;;0.20;60.71;95728.35;1852560;75;28492;-54
2021/01/28 07:08:35;;;;;;;14.47;8.68;;;;;;;0.22;60.64;95731.69;1833123;78;21581;-55
2021/01/28 07:11:31;;;;;;;13.43;7.95;;;;;;;0.25;60.45;95726.00;1833259;78;21196;-54
2021/01/28 07:14:16;;;;;;;13.20;8.13;;;;;;;0.20;60.36;95727.08;1831903;78;21146;-55
2021/01/28 07:17:08;;;;;;;14.20;7.92;;;;;;;0.17;60.31;95725.50;1810656;78;21012;-55
2021/01/28 07:19:41;;;;;;;13.50;7.87;;;;;;;0.13;60.33;95719.70;1841558;78;21570;-54
2021/01/28 07:22:36;;;;;;;11.80;7.35;;;;;;;0.11;60.21;95718.11;1813068;78;21070;-54
2021/01/28 07:25:32;;;;;;;12.78;7.33;;;;;;;0.08;60.09;95720.36;1808881;78;21255;-55
2021/01/28 07:28:20;;;;;;;11.60;6.90;;;;;;;0.06;60.22;95720.84;1819080;77;21117;-53
2021/01/28 07:31:07;;;;;;;15.45;7.60;;;;;;;0.09;60.17;95724.55;1808515;78;21100;-54
2021/01/28 07:33:39;;;;;;;12.10;7.55;;;;;;;0.11;60.24;95725.76;1800411;78;21107;-53
2021/01/28 07:36:27;;;;;;;12.90;8.03;;;;;;;0.06;60.48;95724.67;1818412;77;21080;-55
2021/01/28 07:39:33;;;;;;;32.33;17.12;;;;;;;0.01;60.63;95725.32;1827341;78;21193;-55
2021/01/28 07:42:29;;;;;;;172.20;48.63;;;;;;;0.08;60.81;95731.84;1770827;80;21067;-55
2021/01/28 07:45:33;;;;;;;21.97;9.15;;;;;;;0.18;60.54;95733.09;1739924;81;21081;-56
2021/01/28 07:48:28;;;;;;;57.55;14.93;;;;;;;0.25;60.53;95732.84;1714956;81;21076;-55
2021/01/28 07:51:35;;;;;;;11.50;7.08;;;;;;;0.24;60.60;95731.16;1718678;81;21472;-55
2021/01/28 07:54:05;;;;;;;12.55;6.50;;;;;;;0.24;60.57;95729.44;1721361;83;21316;-55
2021/01/28 07:56:43;;;;;;;12.28;6.55;;;;;;;0.23;60.58;95724.39;1716871;82;21083;-56
2021/01/28 07:59:53;;;;;;;10.55;6.75;;;;;;;0.23;60.37;95725.67;1751261;82;21147;-56
2021/01/28 08:02:29;;;;;;;12.80;7.40;;;;;;;0.23;60.20;95725.67;1751137;82;21065;-56
2021/01/28 08:05:19;;;;;;;10.30;6.30;;;;;;;0.22;60.20;95728.68;1761689;81;21081;-55
2021/01/28 08:08:03;;;;;;;11.80;6.70;;;;;;;0.22;60.27;95726.59;1740151;81;21186;-55
2021/01/28 08:10:35;;;;;;;10.70;6.35;;;;;;;0.29;59.92;95717.76;1767731;81;21515;-54
2021/01/28 08:13:23;;;;;;;10.35;6.60;;;;;;;0.36;59.58;95717.43;1735043;80;21087;-55
2021/01/28 08:16:06;;;;;;;10.20;6.50;;;;;;;0.40;59.27;95724.50;1717053;82;21072;-56
2021/01/28 08:18:34;;;;;;;9.20;6.10;;;;;;;0.40;59.06;95723.22;1727739;82;21484;-56
2021/01/28 08:21:14;;;;;;;9.28;6.10;;;;;;;0.37;58.85;95719.52;1751445;81;21379;-54
2021/01/28 08:23:45;;;;;;;17.27;6.53;;;;;;;0.40;58.74;95719.39;1716216;81;21120;-54
2021/01/28 08:26:17;;;;;;;9.38;6.05;;;;;;;0.49;58.50;95718.15;1721775;83;21091;-55
2021/01/28 08:28:46;;;;;;;11.70;6.90;;;;;;;0.61;58.01;95723.14;1721757;82;21143;-54
2021/01/28 08:31:24;;;;;;;11.07;6.20;;;;;;;0.66;57.78;95721.23;1752011;82;21717;-54
2021/01/28 08:33:58;;;;;;;10.08;5.92;;;;;;;0.67;57.21;95723.70;1751866;81;21398;-55
2021/01/28 08:36:42;;;;;;;8.78;5.30;;;;;;;0.72;57.17;95724.34;1739597;80;21575;-55
2021/01/28 08:39:29;;;;;;;10.07;5.93;;;;;;;0.88;56.98;95720.62;1876949;74;22749;-55
2021/01/28 08:42:14;;;;;;;8.45;5.50;;;;;;;0.97;56.56;95723.64;1769484;79;21082;-55
2021/01/28 08:44:44;;;;;;;9.18;5.37;;;;;;;1.07;56.27;95720.61;1771912;81;21342;-55
2021/01/28 08:47:19;;;;;;;9.33;5.40;;;;;;;1.22;55.73;95722.89;1803274;79;22431;-56
2021/01/28 08:50:10;;;;;;;9.08;5.83;;;;;;;1.33;55.36;95724.91;1810049;77;21485;-56
2021/01/28 08:52:38;;;;;;;8.95;5.45;;;;;;;1.62;54.52;95722.70;1805828;79;21062;-54
2021/01/28 08:55:24;;;;;;;8.00;5.20;;;;;;;1.62;54.52;95722.70;1812074;79;21610;-54
2021/01/28 08:58:06;;;;;;;9.00;5.22;;;;;;;1.82;53.47;95717.87;1782669;80;21448;-55
2021/01/28 09:00:33;;;;;;;10.15;5.30;;;;;;;1.82;53.47;95717.87;1803220;79;20987;-54
2021/01/28 09:03:02;;;;;;;9.73;5.50;;;;;;;1.88;52.83;95727.81;1787881;79;21118;-53
2021/01/28 09:05:33;;;;;;;8.35;5.40;;;;;;;1.91;52.66;95727.66;1811614;78;21640;-54
2021/01/28 09:08:07;;;;;;;8.85;4.95;;;;;;;1.91;52.57;95725.09;1809067;79;21551;-56
2021/01/28 09:10:40;;;;;;;9.20;4.83;;;;;;;1.90;51.89;95719.59;1757566;80;21373;-55
2021/01/28 09:13:40;;;;;;;7.35;5.35;;;;;;;1.91;52.10;95718.70;1784379;80;21083;-54
2021/01/28 09:16:18;;;;;;;9.18;5.40;;;;;;;2.07;51.97;95712.80;1792311;79;21064;-55
2021/01/28 09:18:51;;;;;;;7.30;4.70;;;;;;;2.41;51.45;95717.48;1795008;79;21113;-56
2021/01/28 09:21:24;;;;;;;9.68;5.40;;;;;;;2.77;49.85;95712.14;1763970;79;21094;-54
2021/01/28 09:24:27;;;;;;;6.55;4.92;;;;;;;3.03;49.04;95706.89;1816496;79;21475;-55
2021/01/28 09:27:23;;;;;;;7.80;4.97;;;;;;;3.25;48.67;95709.08;1816410;79;21078;-55
2021/01/28 09:29:53;;;;;;;8.40;5.30;;;;;;;3.48;48.06;95700.10;1809604;79;21117;-55
2021/01/28 09:32:27;;;;;;;9.18;5.22;;;;;;;3.61;47.34;95689.97;1766453;80;21011;-55
2021/01/28 09:35:21;;;;;;;8.55;4.22;;;;;;;3.76;47.10;95697.71;1756208;81;21192;-55
2021/01/28 09:38:14;;;;;;;5.72;4.08;;;;;;;3.87;45.57;95684.63;1750900;81;22129;-55
2021/01/28 09:40:44;;;;;;;7.25;4.30;;;;;;;3.82;45.21;95684.06;1779804;79;22110;-54
2021/01/28 09:43:32;;;;;;;6.78;4.08;;;;;;;3.84;45.01;95683.98;1808298;79;21098;-57
2021/01/28 09:46:22;;;;;;;4.40;3.00;;;;;;;3.91;44.27;95685.27;1804947;78;21148;-55
2021/01/28 09:48:53;;;;;;;7.00;4.40;;;;;;;3.92;43.62;95682.27;1789780;79;21088;-54
2021/01/28 09:51:34;;;;;;;6.90;3.90;;;;;;;3.95;43.48;95676.48;1807799;78;21261;-54
2021/01/28 09:54:15;;;;;;;7.28;4.08;;;;;;;4.09;43.58;95667.95;1813093;78;21583;-54
2021/01/28 09:56:48;;;;;;;7.35;4.42;;;;;;;4.23;43.46;95665.86;1780922;78;21057;-59
2021/01/28 09:59:16;;;;;;;5.75;4.15;;;;;;;4.28;43.00;95664.31;1809549;79;21103;-55
2021/01/28 10:01:46;;;;;;;5.07;3.73;;;;;;;4.25;42.69;95665.30;1811641;79;21139;-56
2021/01/28 10:04:15;;;;;;;5.50;3.67;;;;;;;4.12;42.85;95665.67;1805369;78;21355;-56
2021/01/28 10:06:43;;;;;;;3.60;2.87;;;;;;;4.04;42.61;95673.83;1809752;78;21101;-56
2021/01/28 10:09:11;;;;;;;7.45;3.40;;;;;;;3.84;42.58;95667.30;1806737;79;21167;-56
2021/01/28 10:11:40;;;;;;;3.73;3.00;;;;;;;3.62;42.22;95660.04;1816175;78;21681;-56
2021/01/28 10:14:10;;;;;;;4.58;3.12;;;;;;;3.39;42.29;95663.89;1809983;78;21147;-55
2021/01/28 10:16:38;;;;;;;4.58;3.17;;;;;;;3.21;42.52;95664.03;1806582;79;21198;-55
2021/01/28 10:19:07;;;;;;;4.58;3.10;;;;;;;3.09;42.47;95662.14;1815744;79;21102;-55
2021/01/28 10:21:35;;;;;;;3.47;2.62;;;;;;;3.02;42.37;95669.81;1804537;78;21481;-55
2021/01/28 10:24:03;;;;;;;4.50;3.00;;;;;;;2.99;42.71;95666.95;1791879;78;21123;-56
2021/01/28 10:26:31;;;;;;;2.87;2.30;;;;;;;3.08;42.43;95669.48;1778905;79;21452;-55
2021/01/28 10:28:59;;;;;;;6.80;3.77;;;;;;;3.10;42.23;95670.22;1797574;79;21250;-55
2021/01/28 10:31:29;;;;;;;6.53;4.40;;;;;;;3.13;42.31;95668.30;1777208;79;21101;-55
2021/01/28 10:33:57;;;;;;;6.87;4.00;;;;;;;3.20;42.05;95664.12;1813962;79;21106;-55
2021/01/28 10:36:29;;;;;;;7.03;3.27;;;;;;;3.37;41.74;95664.00;1832224;77;21073;-54
2021/01/28 10:38:57;;;;;;;3.83;2.60;;;;;;;3.66;40.66;95657.65;1813334;78;21071;-54
2021/01/28 10:41:29;;;;;;;3.80;2.62;;;;;;;3.94;39.78;95653.00;1807876;79;21513;-54
2021/01/28 12:34:14;;;;;;;4.28;3.12;;;;;;;4.45;36.74;95463.73;1886137;74;28188;-55
2021/01/28 12:36:43;;;;;;;;;;;;;;;4.33;36.97;95455.55;1859340;76;21074;-54
2021/01/28 12:39:10;;;;;;;4.55;3.20;;;;;;;4.30;37.37;95464.73;1846246;75;22086;-55
2021/01/28 12:41:38;;;;;;;4.13;3.23;;;;;;;4.18;37.22;95459.45;1846340;76;20924;-56
2021/01/28 12:44:06;;;;;;;5.28;3.40;;;;;;;4.04;37.18;95460.77;1839405;75;21129;-56
2021/01/28 12:46:34;;;;;;;3.83;3.20;;;;;;;3.90;37.62;95456.51;1847999;75;21544;-55
2021/01/28 12:49:02;;;;;;;;;;;;;;;3.81;37.57;95457.88;1848052;75;20919;-55
2021/01/28 12:51:30;;;;;;;4.55;3.50;;;;;;;3.73;38.02;95457.53;1845438;75;21202;-55
2021/01/28 12:53:58;;;;;;;3.40;3.10;;;;;;;3.60;37.92;95454.07;1847932;76;21012;-55
2021/01/28 12:56:26;;;;;;;4.40;3.25;;;;;;;3.47;38.24;95456.11;1843201;75;21054;-55
2021/01/28 12:58:53;;;;;;;5.10;3.40;;;;;;;3.41;38.39;95446.22;1842836;75;21054;-56
2021/01/28 13:01:23;;;;;;;19.15;10.58;;;;;;;3.35;38.66;95435.05;1849435;76;21071;-54
2021/01/28 13:03:51;;;;;;;37.05;12.65;;;;;;;3.33;38.91;95440.73;1838131;75;21353;-54
2021/01/28 13:06:19;;;;;;;9.85;4.55;;;;;;;3.29;38.85;95436.72;1842529;75;21999;-54
2021/01/28 13:08:47;;;;;;;5.08;3.33;;;;;;;3.20;38.91;95432.94;1838918;75;21138;-54
2021/01/28 13:11:14;;;;;;;5.67;3.62;;;;;;;3.12;38.92;95428.30;1842306;75;21065;-55
2021/01/28 13:13:42;;;;;;;5.42;3.50;;;;;;;3.04;38.99;95421.95;1837110;75;21054;-55
2021/01/28 13:16:09;;;;;;;4.33;3.35;;;;;;;2.91;39.18;95424.41;1843225;75;22210;-56
2021/01/28 13:18:38;;;;;;;6.40;3.75;;;;;;;2.81;39.42;95426.69;1856550;75;21110;-55
2021/01/28 13:21:06;;;;;;;5.25;3.30;;;;;;;2.72;39.48;95419.55;1849096;75;21055;-54
2021/01/28 13:23:34;;;;;;;5.70;3.75;;;;;;;2.69;39.65;95410.77;1822141;77;21883;-56
2021/01/28 13:26:02;;;;;;;4.25;3.25;;;;;;;2.70;39.58;95413.70;1825861;78;21059;-55
2021/01/28 13:28:29;;;;;;;5.83;3.80;;;;;;;2.81;39.38;95410.50;1821350;77;21206;-56
2021/01/28 13:30:57;;;;;;;4.35;3.45;;;;;;;3.04;39.17;95406.14;1823899;77;21141;-55
2021/01/28 13:33:25;;;;;;;4.58;3.20;;;;;;;3.41;38.65;95406.94;1811614;77;21145;-56
2021/01/28 13:35:52;;;;;;;6.50;3.67;;;;;;;3.64;37.97;95404.24;1785037;79;21150;-55
2021/01/28 13:38:20;;;;;;;5.15;3.67;;;;;;;3.80;37.64;95393.39;1792995;79;21129;-55
2021/01/28 13:40:48;;;;;;;5.05;3.67;;;;;;;3.95;37.16;95389.03;1785294;79;21270;-55
2021/01/28 13:43:17;;;;;;;5.33;3.92;;;;;;;4.07;37.11;95387.42;1789720;79;21086;-56
2021/01/28 13:45:45;;;;;;;4.33;3.60;;;;;;;4.16;36.69;95382.99;1792447;79;21117;-55
2021/01/28 13:48:12;;;;;;;5.80;3.70;;;;;;;4.20;36.34;95380.58;1792312;80;21542;-55
2021/01/28 13:50:40;;;;;;;4.72;3.72;;;;;;;4.21;36.16;95375.81;1793338;80;21654;-55
2021/01/28 13:53:08;;;;;;;4.37;3.58;;;;;;;4.17;36.22;95376.92;1793006;79;21355;-56
2021/01/28 13:55:36;;;;;;;5.55;3.37;;;;;;;4.14;36.13;95380.96;1786121;80;21157;-55
2021/01/28 13:58:03;;;;;;;5.22;3.52;;;;;;;4.05;36.22;95374.69;1790480;80;21079;-56
2021/01/28 14:00:31;;;;;;;5.33;3.58;;;;;;;3.98;36.26;95377.73;1788463;80;21169;-55
2021/01/28 14:03:00;;;;;;;6.25;4.20;;;;;;;3.90;36.47;95385.09;1792360;80;21162;-53
2021/01/28 14:05:28;;;;;;;6.10;3.90;;;;;;;3.86;36.67;95381.47;1791737;80;21356;-54
2021/01/28 14:07:57;;;;;;;6.03;3.70;;;;;;;3.82;36.48;95381.28;1792195;80;21145;-55
2021/01/28 14:10:29;;;;;;;6.50;3.52;;;;;;;3.76;36.61;95374.43;1792116;80;21082;-55
2021/01/28 14:12:57;;;;;;;4.80;3.40;;;;;;;3.69;36.22;95384.25;1785972;80;21133;-54
2021/01/28 14:15:28;;;;;;;5.67;3.22;;;;;;;3.52;36.54;95385.31;1792568;80;21169;-53